createdAt,value
2018-06-28T00:02:08.817Z,19.80
2018-06-28T00:07:12.811Z,19.80
2018-06-28T00:12:16.809Z,19.90
2018-06-28T00:17:20.797Z,19.60
2018-06-28T00:22:24.796Z,19.60
2018-06-28T00:27:28.796Z,19.60
2018-06-28T00:32:32.795Z,19.40
2018-06-28T00:37:36.810Z,19.10
2018-06-28T00:42:40.762Z,19.00
2018-06-28T00:47:44.803Z,19.00
2018-06-28T00:52:48.800Z,19.10
2018-06-28T00:57:52.784Z,19.10
2018-06-28T01:02:56.767Z,18.90
2018-06-28T01:08:01.636Z,19.00
2018-06-28T01:13:06.067Z,18.80
2018-06-28T01:23:13.821Z,18.90
2018-06-28T01:28:17.793Z,18.80
2018-06-28T01:33:21.834Z,18.60
2018-06-28T01:38:25.856Z,18.30
2018-06-28T01:43:38.456Z,18.10
2018-06-28T01:48:42.889Z,18.10
2018-06-28T01:53:46.870Z,17.90
2018-06-28T01:58:50.884Z,17.90
2018-06-28T02:03:54.897Z,17.90
2018-06-28T02:08:58.873Z,18.00
2018-06-28T02:14:02.912Z,17.90
2018-06-28T02:19:06.961Z,17.70
2018-06-28T02:24:10.939Z,17.90
2018-06-28T02:29:14.925Z,17.70
2018-06-28T02:34:18.920Z,17.60
2018-06-28T02:39:22.943Z,17.50
2018-06-28T02:44:27.397Z,17.40
2018-06-28T02:49:31.481Z,17.30
2018-06-28T02:54:35.479Z,17.40
2018-06-28T02:59:39.564Z,17.40
2018-06-28T03:04:43.603Z,17.30
2018-06-28T03:09:47.664Z,17.30
2018-06-28T03:14:51.699Z,17.40
2018-06-28T03:19:55.676Z,17.20
2018-06-28T03:24:59.677Z,17.10
2018-06-28T03:30:04.016Z,17.10
2018-06-28T03:35:07.984Z,17.00
2018-06-28T03:45:15.607Z,17.20
2018-06-28T03:50:19.592Z,17.20
2018-06-28T03:55:23.583Z,17.10
2018-06-28T04:00:27.668Z,17.30
2018-06-28T04:05:31.654Z,17.20
2018-06-28T04:10:35.644Z,17.40
2018-06-28T04:15:39.637Z,17.60
2018-06-28T04:20:43.677Z,17.80
2018-06-28T04:25:47.655Z,18.00
2018-06-28T04:30:52.431Z,18.00
2018-06-28T04:35:56.432Z,18.40
2018-06-28T04:41:00.484Z,18.80
2018-06-28T04:51:08.148Z,19.10
2018-06-28T04:56:12.212Z,19.10
2018-06-28T05:01:16.266Z,19.20
2018-06-28T05:06:20.259Z,19.20
2018-06-28T05:16:27.899Z,19.80
2018-06-28T05:26:35.619Z,20.40
2018-06-28T05:31:39.619Z,20.80
2018-06-28T05:36:43.619Z,21.10
2018-06-28T05:41:47.633Z,21.40
2018-06-28T05:46:51.923Z,21.80
2018-06-28T05:51:55.971Z,22.00
2018-06-28T06:02:03.990Z,22.70
2018-06-28T06:07:08.021Z,23.30
2018-06-28T06:12:12.160Z,23.80
2018-06-28T06:17:16.152Z,23.90
2018-06-28T06:22:20.155Z,24.30
2018-06-28T06:27:24.171Z,24.80
2018-06-28T06:32:28.164Z,25.00
2018-06-28T06:37:32.139Z,25.10
2018-06-28T06:42:36.136Z,25.40
2018-06-28T06:47:40.139Z,26.00
2018-06-28T06:52:44.199Z,26.20
2018-06-28T06:57:48.205Z,26.20
2018-06-28T07:02:52.191Z,26.80
2018-06-28T07:07:56.186Z,27.30
2018-06-28T07:13:00.192Z,27.50
2018-06-28T07:23:08.403Z,27.90
2018-06-28T07:28:12.287Z,28.10
2018-06-28T07:33:16.320Z,28.10
2018-06-28T07:38:20.310Z,28.80
2018-06-28T07:43:25.171Z,29.80
2018-06-28T07:48:29.175Z,30.30
2018-06-28T07:53:33.192Z,30.50
2018-06-28T07:58:37.991Z,30.60
2018-06-28T08:03:41.987Z,31.10
2018-06-28T08:08:46.001Z,31.50
2018-06-28T08:18:54.023Z,31.90
2018-06-28T08:23:58.993Z,31.90
2018-06-28T08:29:03.162Z,33.20
2018-06-28T08:34:07.154Z,31.90
2018-06-28T08:39:11.147Z,32.80
2018-06-28T08:44:16.060Z,32.90
2018-06-28T08:49:20.056Z,32.60
2018-06-28T08:54:24.072Z,32.90
2018-06-28T08:59:28.059Z,33.40
2018-06-28T09:04:32.035Z,33.40
2018-06-28T09:09:36.012Z,32.50
2018-06-28T09:14:40.030Z,33.60
2018-06-28T09:19:44.020Z,31.70
2018-06-28T09:24:48.027Z,32.70
2018-06-28T09:29:52.009Z,33.50
2018-06-28T09:34:55.986Z,33.70
2018-06-28T09:39:59.992Z,34.30
2018-06-28T09:45:03.988Z,33.90
2018-06-28T09:50:08.000Z,33.80
2018-06-28T09:55:12.016Z,33.80
2018-06-28T10:00:21.381Z,34.20
2018-06-28T10:10:28.931Z,34.10
2018-06-28T10:15:32.927Z,33.60
2018-06-28T10:20:36.931Z,35.80
2018-06-28T10:25:40.923Z,34.80
2018-06-28T10:30:44.910Z,35.00
2018-06-28T10:35:48.888Z,35.40
2018-06-28T10:40:53.123Z,35.60
2018-06-28T10:45:57.049Z,35.50
2018-06-28T10:51:01.037Z,35.50
2018-06-28T10:56:05.371Z,36.50
2018-06-28T11:01:09.366Z,36.20
2018-06-28T11:06:13.390Z,36.30
2018-06-28T11:11:17.377Z,36.70
2018-06-28T11:16:21.447Z,37.10
2018-06-28T11:21:25.464Z,36.70
2018-06-28T11:26:29.455Z,34.50
2018-06-28T11:31:33.657Z,35.80
2018-06-28T11:36:37.732Z,37.10
2018-06-28T11:46:45.340Z,37.00
2018-06-28T11:51:49.338Z,36.10
2018-06-28T11:56:53.352Z,35.30
2018-06-28T12:07:15.755Z,37.30
2018-06-28T12:12:19.743Z,36.90
2018-06-28T12:17:24.094Z,36.30
2018-06-28T12:22:28.067Z,35.60
2018-06-28T12:27:32.044Z,36.80
2018-06-28T12:32:36.036Z,36.90
2018-06-28T12:37:40.089Z,37.60
2018-06-28T12:42:44.092Z,38.10
2018-06-28T12:52:59.099Z,36.80
2018-06-28T12:58:03.171Z,37.20
2018-06-28T13:03:07.169Z,38.30
2018-06-28T13:08:11.147Z,38.10
2018-06-28T13:13:15.161Z,39.70
2018-06-28T13:18:19.162Z,38.10
2018-06-28T13:23:23.143Z,39.40
2018-06-28T13:28:27.863Z,38.70
2018-06-28T13:38:50.296Z,37.40
2018-06-28T13:43:54.291Z,37.90
2018-06-28T13:48:58.279Z,37.80
2018-06-28T13:54:02.267Z,37.30
2018-06-28T13:59:06.319Z,37.60
2018-06-28T14:04:10.327Z,37.50
2018-06-28T14:09:14.368Z,37.80
2018-06-28T14:14:18.447Z,37.80
2018-06-28T14:19:22.447Z,37.20
2018-06-28T14:24:27.220Z,36.20
2018-06-28T14:34:34.963Z,34.70
2018-06-28T14:39:38.963Z,36.30
2018-06-28T14:44:42.959Z,36.20
2018-06-28T14:49:47.009Z,37.70
2018-06-28T14:54:51.004Z,37.20
2018-06-28T14:59:55.059Z,34.70
2018-06-28T15:04:59.063Z,35.40
2018-06-28T15:10:03.905Z,36.70
2018-06-28T15:15:07.933Z,36.20
2018-06-28T15:20:11.942Z,35.70
2018-06-28T15:25:16.053Z,34.30
2018-06-28T15:30:20.052Z,34.60
2018-06-28T15:35:24.065Z,35.90
2018-06-28T15:40:28.135Z,35.90
2018-06-28T15:45:32.124Z,34.70
2018-06-28T15:50:36.348Z,33.60
2018-06-28T15:55:40.339Z,34.10
2018-06-28T16:00:44.313Z,34.90
2018-06-28T16:05:48.660Z,34.50
2018-06-28T16:10:52.650Z,33.30
2018-06-28T16:15:56.652Z,33.20
2018-06-28T16:21:00.648Z,33.40
2018-06-28T16:36:11.968Z,32.10
2018-06-28T16:41:15.985Z,33.50
2018-06-28T16:46:20.107Z,34.10
2018-06-28T16:51:23.984Z,34.70
2018-06-28T16:56:28.270Z,34.30
2018-06-28T17:06:50.663Z,32.20
2018-06-28T17:11:54.657Z,31.70
2018-06-28T17:16:58.715Z,30.90
2018-06-28T17:22:02.708Z,30.20
2018-06-28T17:27:06.730Z,29.60
2018-06-28T17:32:10.813Z,29.40
2018-06-28T17:37:15.061Z,29.10
2018-06-28T17:42:19.070Z,29.70
2018-06-28T17:47:23.084Z,29.20
2018-06-28T17:52:27.098Z,28.50
2018-06-28T17:57:31.076Z,28.40
2018-06-28T18:02:35.193Z,28.00
2018-06-28T18:07:39.247Z,28.20
2018-06-28T18:12:43.285Z,28.50
2018-06-28T18:17:47.346Z,28.20
2018-06-28T18:22:51.357Z,27.80
2018-06-28T18:27:55.367Z,27.50
2018-06-28T18:32:59.348Z,27.60
2018-06-28T18:38:03.421Z,27.90
2018-06-28T18:43:07.467Z,27.50
2018-06-28T18:48:11.454Z,27.30
2018-06-28T18:53:15.464Z,27.60
2018-06-28T18:58:19.463Z,27.60
2018-06-28T19:03:23.562Z,27.20
2018-06-28T19:08:27.576Z,27.10
2018-06-28T19:13:31.600Z,26.70
2018-06-28T19:18:35.748Z,26.80
2018-06-28T19:23:45.093Z,26.90
2018-06-28T19:28:49.535Z,26.60
2018-06-28T19:34:24.348Z,26.70
2018-06-28T19:39:33.855Z,26.90
2018-06-28T19:44:38.092Z,26.70
2018-06-28T19:49:47.383Z,26.70
2018-06-28T19:54:51.381Z,26.50
2018-06-28T19:59:55.389Z,26.60
2018-06-28T20:04:59.821Z,26.60
2018-06-28T20:10:04.136Z,26.30
2018-06-28T20:15:13.612Z,26.10
2018-06-28T20:20:20.523Z,25.90
2018-06-28T20:25:24.503Z,25.90
2018-06-28T20:30:33.832Z,25.70
2018-06-28T20:35:37.982Z,25.40
2018-06-28T20:40:41.968Z,25.40
2018-06-28T20:45:45.967Z,25.20
2018-06-28T20:50:50.426Z,25.10
2018-06-28T20:55:54.374Z,25.10
2018-06-28T21:00:58.418Z,25.00
2018-06-28T21:06:02.485Z,25.00
2018-06-28T21:11:07.117Z,24.80
2018-06-28T21:16:11.124Z,24.70
2018-06-28T21:21:15.127Z,24.70
2018-06-28T21:26:19.131Z,24.50
2018-06-28T21:31:23.122Z,24.60
2018-06-28T21:36:27.131Z,24.40
2018-06-28T21:41:31.197Z,24.20
2018-06-28T21:46:35.207Z,24.30
2018-06-28T21:51:39.200Z,24.30
2018-06-28T21:56:43.252Z,24.00
2018-06-28T22:01:51.760Z,23.80
2018-06-28T22:06:55.820Z,23.90
2018-06-28T22:11:59.808Z,23.80
2018-06-28T22:17:03.821Z,24.00
2018-06-28T22:22:07.843Z,23.80
2018-06-28T22:27:11.832Z,23.60
2018-06-28T22:37:19.451Z,23.60
2018-06-28T22:42:23.443Z,23.50
2018-06-28T22:47:27.443Z,23.30
2018-06-28T22:52:31.452Z,23.50
2018-06-28T23:02:39.462Z,23.10
2018-06-28T23:07:43.480Z,23.10
2018-06-28T23:12:47.475Z,23.20
2018-06-28T23:17:51.492Z,23.10
2018-06-28T23:27:59.120Z,23.00
2018-06-28T23:38:06.749Z,23.20
2018-06-28T23:48:14.376Z,23.10
2018-06-28T23:53:18.379Z,23.00
2018-06-28T23:58:22.367Z,22.80
